Time;durP1;ratioP1;P1;durP2;ratioP2;P2;SDS_P1;SDS_P2;PMS_P1;PMS_P2;Temp;Humidity;BMP_temperature;BMP_pressure;BME280_temperature;BME280_humidity;BME280_pressure;Samples;Min_cycle;Max_cycle;Signal;HPM_P1;HPM_P2
2022/11/04 00:03:25;;;;;;;7.20;6.80;;;13.20;99.90;;;;;;10554092;28;20242;-81
2022/11/04 00:08:27;;;;;;;5.57;5.10;;;13.20;99.90;;;;;;10545324;28;20212;-81
2022/11/04 00:13:29;;;;;;;7.03;6.57;;;13.10;99.90;;;;;;10546776;28;20216;-81
2022/11/04 00:18:35;;;;;;;6.17;5.87;;;13.20;99.90;;;;;;10545555;28;20196;-81
2022/11/04 00:28:57;;;;;;;6.20;5.80;;;13.20;99.90;;;;;;10553928;28;20214;-82
2022/11/04 00:34:00;;;;;;;3.90;3.80;;;13.20;99.90;;;;;;10537700;28;20212;-81
2022/11/04 00:39:02;;;;;;;4.80;4.60;;;13.30;99.90;;;;;;10556557;28;20199;-81
2022/11/04 00:44:05;;;;;;;4.67;4.47;;;13.30;99.90;;;;;;10541635;28;20299;-81
2022/11/04 00:49:08;;;;;;;4.50;4.30;;;13.40;99.90;;;;;;10552028;28;20664;-81
2022/11/04 00:54:11;;;;;;;4.80;3.70;;;13.40;99.90;;;;;;10547572;28;20334;-80
2022/11/04 00:59:13;;;;;;;4.10;3.90;;;13.40;99.90;;;;;;10548029;28;20445;-81
2022/11/04 01:04:16;;;;;;;4.40;4.20;;;13.40;99.90;;;;;;10558036;28;20255;-83
2022/11/04 01:09:18;;;;;;;3.83;3.63;;;13.40;99.90;;;;;;10510908;28;20212;-80
2022/11/04 01:14:21;;;;;;;4.07;3.87;;;13.40;99.90;;;;;;10545193;28;20311;-81
2022/11/04 01:19:24;;;;;;;3.47;3.37;;;13.40;99.90;;;;;;10531113;28;20203;-81
2022/11/04 01:24:26;;;;;;;3.70;3.60;;;13.40;99.90;;;;;;10547562;28;20227;-81
2022/11/04 01:29:29;;;;;;;4.20;4.00;;;13.40;99.90;;;;;;10530179;28;20247;-81
2022/11/04 01:34:32;;;;;;;3.97;3.77;;;13.50;99.90;;;;;;10549303;28;20618;-81
2022/11/04 01:39:34;;;;;;;4.00;3.80;;;13.50;99.90;;;;;;10549257;28;20230;-81
2022/11/04 01:44:49;;;;;;;3.97;3.77;;;13.50;99.90;;;;;;10550407;28;20239;-82
2022/11/04 01:49:57;;;;;;;4.10;3.90;;;13.50;99.90;;;;;;10532501;28;20246;-81
2022/11/04 01:55:05;;;;;;;4.60;4.20;;;13.50;99.90;;;;;;10549774;28;20257;-81
2022/11/04 02:00:09;;;;;;;3.70;3.50;;;13.50;99.90;;;;;;10548153;28;20259;-82
2022/11/04 02:05:15;;;;;;;3.93;3.63;;;13.40;99.90;;;;;;10560489;28;20218;-81
2022/11/04 02:10:19;;;;;;;4.30;4.10;;;13.40;99.90;;;;;;10526311;28;20298;-81
2022/11/04 02:15:30;;;;;;;3.93;3.73;;;13.40;99.90;;;;;;10545373;28;20887;-82
2022/11/04 02:20:59;;;;;;;3.97;3.87;;;13.40;99.90;;;;;;10546868;28;20196;-82
2022/11/04 02:26:43;;;;;;;3.50;3.30;;;13.40;99.90;;;;;;10526285;28;20232;-81
2022/11/04 02:31:53;;;;;;;3.37;3.27;;;13.30;99.90;;;;;;10488983;28;20298;-81
2022/11/04 02:37:05;;;;;;;3.50;3.20;;;13.30;99.90;;;;;;10528414;28;20216;-81
2022/11/04 02:42:12;;;;;;;3.53;3.37;;;13.30;99.90;;;;;;10543264;28;20263;-81
2022/11/04 02:47:19;;;;;;;3.67;3.40;;;13.30;99.90;;;;;;10543698;28;20242;-81
2022/11/04 02:52:29;;;;;;;4.20;4.00;;;13.30;99.90;;;;;;10527719;28;20184;-81
2022/11/04 02:57:35;;;;;;;4.17;4.00;;;13.20;99.90;;;;;;10543711;28;20275;-82
2022/11/04 03:02:42;;;;;;;4.53;4.33;;;13.30;99.90;;;;;;10547063;28;20234;-81
2022/11/04 03:07:48;;;;;;;3.80;3.50;;;13.20;99.90;;;;;;10528279;28;20747;-81
2022/11/04 03:12:57;;;;;;;5.40;5.10;;;13.20;99.90;;;;;;10544156;28;20656;-81
2022/11/04 03:18:11;;;;;;;4.10;3.90;;;13.10;99.90;;;;;;10544986;28;20286;-81
2022/11/04 03:23:13;;;;;;;3.87;3.67;;;13.10;99.90;;;;;;10546114;28;20223;-81
2022/11/04 03:28:27;;;;;;;3.50;3.30;;;13.00;99.90;;;;;;10547569;28;20595;-81
2022/11/04 03:33:39;;;;;;;3.60;3.50;;;13.00;99.90;;;;;;10544496;28;20263;-81
2022/11/04 03:38:41;;;;;;;3.30;3.10;;;12.90;99.90;;;;;;10544057;28;20273;-81
2022/11/04 03:43:43;;;;;;;3.33;3.23;;;12.90;99.90;;;;;;10544789;28;20311;-81
2022/11/04 03:48:47;;;;;;;3.70;3.50;;;12.80;99.90;;;;;;10544210;28;20211;-81
2022/11/04 03:53:50;;;;;;;3.60;3.40;;;12.70;99.90;;;;;;10543874;28;20215;-82
2022/11/04 03:59:03;;;;;;;4.70;4.30;;;12.50;99.90;;;;;;10544638;28;20187;-81
2022/11/04 04:04:16;;;;;;;3.43;3.23;;;12.40;99.90;;;;;;10527130;28;20212;-81
2022/11/04 04:09:22;;;;;;;3.43;3.33;;;12.40;99.90;;;;;;10546469;28;20212;-81
2022/11/04 04:14:40;;;;;;;3.73;3.63;;;12.30;99.90;;;;;;10528328;28;20310;-81
2022/11/04 04:19:48;;;;;;;3.97;3.77;;;12.20;99.90;;;;;;10545532;28;20620;-80
2022/11/04 04:30:16;;;;;;;4.73;4.50;;;12.10;99.90;;;;;;10543223;28;20223;-81
2022/11/04 04:35:44;;;;;;;4.23;3.93;;;12.10;99.90;;;;;;10542687;28;20318;-81
2022/11/04 04:46:12;;;;;;;3.90;3.70;;;12.10;99.90;;;;;;10554653;28;20310;-80
2022/11/04 04:51:16;;;;;;;4.87;4.67;;;12.00;99.90;;;;;;10545172;28;20703;-81
2022/11/04 04:56:18;;;;;;;5.37;4.97;;;12.00;99.90;;;;;;10552001;28;20684;-81
2022/11/04 05:01:20;;;;;;;5.07;4.87;;;12.00;99.90;;;;;;10546518;28;20249;-81
2022/11/04 05:06:23;;;;;;;5.53;4.90;;;12.00;99.90;;;;;;10553577;28;20211;-83
2022/11/04 05:11:25;;;;;;;5.20;4.90;;;12.00;99.90;;;;;;10552845;28;20416;-82
2022/11/04 05:16:27;;;;;;;5.07;4.57;;;12.10;99.90;;;;;;10554310;28;20212;-82
2022/11/04 05:21:34;;;;;;;5.13;4.83;;;12.10;99.90;;;;;;10535034;28;20639;-82
2022/11/04 05:26:36;;;;;;;4.57;4.37;;;12.10;99.90;;;;;;10534759;28;20230;-81
2022/11/04 05:31:38;;;;;;;5.07;4.87;;;12.10;99.90;;;;;;10551285;28;20269;-82
2022/11/04 05:36:42;;;;;;;6.73;3.17;;;12.10;99.90;;;;;;10550440;28;20226;-82
2022/11/04 05:41:44;;;;;;;6.47;5.87;;;12.00;99.90;;;;;;10549101;28;20196;-82
2022/11/04 05:46:46;;;;;;;6.77;6.30;;;11.90;99.90;;;;;;10552879;28;20208;-82
2022/11/04 05:51:49;;;;;;;5.30;4.90;;;11.80;99.90;;;;;;10534094;28;20526;-79
2022/11/04 05:56:51;;;;;;;6.00;5.50;;;11.80;99.90;;;;;;10553495;28;20269;-83
2022/11/04 06:01:53;;;;;;;5.10;4.90;;;11.70;99.90;;;;;;10548416;28;20259;-83
2022/11/04 06:06:57;;;;;;;5.87;5.47;;;11.70;99.90;;;;;;10535914;28;20270;-83
2022/11/04 06:11:59;;;;;;;5.43;5.00;;;11.70;99.90;;;;;;10527556;28;20212;-81
2022/11/04 06:17:01;;;;;;;5.67;5.43;;;11.70;99.90;;;;;;10542339;28;20220;-81
2022/11/04 06:22:05;;;;;;;5.70;5.40;;;11.70;99.90;;;;;;10543538;28;20188;-81
2022/11/04 06:27:08;;;;;;;4.80;4.50;;;11.70;99.90;;;;;;10547805;28;20427;-79
2022/11/04 06:32:13;;;;;;;5.30;5.00;;;11.80;99.90;;;;;;10530558;28;20220;-82
2022/11/04 06:37:16;;;;;;;6.30;5.90;;;11.80;99.90;;;;;;10541746;28;20241;-82
2022/11/04 06:42:18;;;;;;;5.87;5.47;;;11.70;99.90;;;;;;10541504;28;20198;-82
2022/11/04 06:47:20;;;;;;;5.87;5.37;;;11.70;99.90;;;;;;10545601;28;20232;-80
2022/11/04 06:52:24;;;;;;;6.70;6.40;;;11.70;99.90;;;;;;10556155;28;20216;-81
2022/11/04 06:57:26;;;;;;;5.73;5.40;;;11.70;99.90;;;;;;10541769;28;20247;-81
2022/11/04 07:02:28;;;;;;;4.87;4.67;;;11.80;99.90;;;;;;10540268;28;20708;-81
2022/11/04 07:07:32;;;;;;;5.50;5.10;;;11.90;99.90;;;;;;10525686;28;20212;-81
2022/11/04 07:12:34;;;;;;;5.27;4.87;;;11.90;99.90;;;;;;10523494;28;20222;-81
2022/11/04 07:17:36;;;;;;;5.80;5.50;;;12.00;99.90;;;;;;10541872;28;20302;-82
2022/11/04 07:22:39;;;;;;;10.67;6.87;;;12.00;99.90;;;;;;10539228;28;20623;-82
2022/11/04 07:27:41;;;;;;;9.50;6.43;;;12.10;99.90;;;;;;10540086;28;20211;-82
2022/11/04 07:32:43;;;;;;;7.27;6.73;;;12.20;99.90;;;;;;10540450;28;20645;-82
2022/11/04 07:37:47;;;;;;;15.70;10.90;;;12.20;99.90;;;;;;10551494;28;20224;-81
2022/11/04 07:42:49;;;;;;;10.60;9.50;;;12.30;99.90;;;;;;10539658;28;20188;-82
2022/11/04 07:47:53;;;;;;;7.40;5.90;;;12.30;99.90;;;;;;10541954;28;20253;-82
2022/11/04 07:52:56;;;;;;;5.80;5.40;;;12.40;99.90;;;;;;10540472;28;20218;-82
2022/11/04 07:57:59;;;;;;;6.03;5.63;;;12.50;99.90;;;;;;10540243;28;20747;-82
2022/11/04 08:03:01;;;;;;;7.77;7.00;;;12.50;99.90;;;;;;10538685;28;20219;-82
2022/11/04 08:08:05;;;;;;;7.20;6.33;;;12.60;99.90;;;;;;10539617;28;20242;-82
2022/11/04 08:13:07;;;;;;;9.97;8.77;;;12.60;99.90;;;;;;10546773;28;20253;-82
2022/11/04 08:18:09;;;;;;;4.93;4.63;;;12.70;99.90;;;;;;10538594;28;20199;-82
2022/11/04 08:23:12;;;;;;;6.77;6.17;;;12.90;99.90;;;;;;10537232;28;20218;-82
2022/11/04 08:28:17;;;;;;;5.47;5.17;;;13.00;99.90;;;;;;10534911;28;20200;-82
2022/11/04 08:33:19;;;;;;;5.27;4.87;;;13.10;99.90;;;;;;10537195;28;20212;-81
2022/11/04 08:38:22;;;;;;;4.43;4.13;;;13.20;99.90;;;;;;10537317;28;20189;-82
2022/11/04 08:43:25;;;;;;;4.70;4.47;;;13.30;99.90;;;;;;10527899;28;20215;-83
2022/11/04 08:48:28;;;;;;;3.13;2.93;;;13.40;99.90;;;;;;10528110;28;20249;-81
2022/11/04 08:53:35;;;;;;;4.97;4.73;;;13.50;99.90;;;;;;10544031;28;20216;-81
2022/11/04 08:58:37;;;;;;;2.63;2.50;;;13.60;99.90;;;;;;10544255;28;20265;-82
2022/11/04 09:03:40;;;;;;;4.10;3.27;;;13.60;99.90;;;;;;10527942;28;20219;-82
2022/11/04 09:08:43;;;;;;;4.47;4.13;;;13.60;99.90;;;;;;10545425;28;20221;-82
2022/11/04 09:13:46;;;;;;;7.63;7.03;;;13.70;99.90;;;;;;10545733;28;20220;-80
2022/11/04 09:18:48;;;;;;;6.20;5.60;;;13.70;99.90;;;;;;10543563;28;20218;-82
2022/11/04 09:23:51;;;;;;;4.27;3.97;;;13.80;99.90;;;;;;10545188;28;21318;-81
2022/11/04 09:28:54;;;;;;;4.00;3.70;;;13.80;99.90;;;;;;10543180;28;20238;-82
2022/11/04 09:33:57;;;;;;;4.50;4.20;;;13.90;99.90;;;;;;10527479;28;20678;-82
2022/11/04 09:39:00;;;;;;;5.00;4.73;;;13.90;99.90;;;;;;10544167;28;20192;-83
2022/11/04 09:44:12;;;;;;;4.83;4.53;;;14.00;99.90;;;;;;10543570;28;20208;-82
2022/11/04 09:49:15;;;;;;;4.50;3.90;;;14.00;99.90;;;;;;10543077;28;20243;-82
2022/11/04 09:54:22;;;;;;;5.03;4.73;;;14.00;99.90;;;;;;10542589;28;20222;-82
2022/11/04 09:59:28;;;;;;;7.20;6.10;;;14.10;99.90;;;;;;10525813;28;20584;-82
2022/11/04 10:04:42;;;;;;;4.97;4.57;;;14.10;99.90;;;;;;10525655;28;20211;-82
2022/11/04 10:09:58;;;;;;;4.80;3.30;;;14.20;99.90;;;;;;10542238;28;20302;-82
2022/11/04 10:15:32;;;;;;;5.00;4.67;;;14.20;99.90;;;;;;10543229;28;20302;-82
2022/11/04 10:20:49;;;;;;;4.43;4.20;;;14.30;99.90;;;;;;10545545;28;20196;-82
2022/11/04 10:25:58;;;;;;;4.13;3.83;;;14.20;99.90;;;;;;10548917;28;20227;-82
2022/11/04 10:31:00;;;;;;;5.03;4.60;;;14.20;99.90;;;;;;10548611;28;20223;-82
2022/11/04 10:36:06;;;;;;;4.90;4.60;;;14.20;99.90;;;;;;10549668;28;20304;-82
2022/11/04 10:41:26;;;;;;;4.90;4.50;;;14.20;99.90;;;;;;10566141;28;20209;-82
2022/11/04 10:46:52;;;;;;;5.00;4.70;;;14.30;99.90;;;;;;10541569;28;20634;-82
2022/11/04 10:51:56;;;;;;;5.97;5.43;;;14.30;99.90;;;;;;10541735;28;20265;-82
2022/11/04 10:56:59;;;;;;;5.20;4.77;;;14.40;99.90;;;;;;10542206;28;20223;-81
2022/11/04 11:02:02;;;;;;;6.20;5.70;;;14.50;99.90;;;;;;10541531;28;20192;-82
2022/11/04 11:07:08;;;;;;;4.97;4.47;;;14.60;99.90;;;;;;10561284;28;20282;-82
2022/11/04 11:12:28;;;;;;;5.97;4.30;;;14.70;99.90;;;;;;10529342;28;20262;-82
2022/11/04 11:17:37;;;;;;;5.20;4.47;;;14.80;99.90;;;;;;10547655;28;20704;-80
2022/11/04 11:22:41;;;;;;;4.50;4.20;;;14.80;99.90;;;;;;10535219;28;20287;-81
2022/11/04 11:27:49;;;;;;;4.87;4.47;;;14.80;99.90;;;;;;10546826;28;20283;-82
2022/11/04 11:32:54;;;;;;;5.10;4.70;;;14.80;99.90;;;;;;10520998;28;20216;-81
2022/11/04 11:37:58;;;;;;;5.27;4.97;;;14.90;99.90;;;;;;10533637;28;20496;-82
2022/11/04 11:43:02;;;;;;;5.13;4.63;;;14.90;99.90;;;;;;10545067;28;20601;-82
2022/11/04 11:48:29;;;;;;;5.10;4.70;;;14.90;99.90;;;;;;10521509;28;20226;-82
2022/11/04 11:53:34;;;;;;;4.53;4.30;;;15.00;99.90;;;;;;10539732;28;20222;-82
2022/11/04 11:58:43;;;;;;;5.70;4.57;;;15.00;99.90;;;;;;10536843;28;20282;-82
2022/11/04 12:03:46;;;;;;;4.13;3.83;;;15.00;99.90;;;;;;10537171;28;20282;-81
2022/11/04 12:09:17;;;;;;;5.87;5.37;;;15.10;99.90;;;;;;10537217;28;20203;-81
2022/11/04 12:14:32;;;;;;;11.50;4.70;;;15.10;99.90;;;;;;10540300;28;20875;-82
2022/11/04 12:20:08;;;;;;;4.23;3.93;;;15.10;99.90;;;;;;10528829;28;20671;-81
2022/11/04 12:25:19;;;;;;;5.40;5.00;;;15.20;99.90;;;;;;10520495;28;20219;-81
2022/11/04 12:31:02;;;;;;;5.37;4.87;;;15.20;99.90;;;;;;10538734;28;20695;-81
2022/11/04 12:36:18;;;;;;;4.70;4.30;;;15.20;99.90;;;;;;10544806;28;20222;-81
2022/11/04 12:41:27;;;;;;;14.13;11.10;;;15.20;99.90;;;;;;10546481;28;20204;-81
2022/11/04 12:46:37;;;;;;;4.77;4.40;;;15.10;99.90;;;;;;10520515;28;20216;-81
2022/11/04 12:51:49;;;;;;;5.10;4.60;;;15.10;99.90;;;;;;10502891;28;20436;-81
2022/11/04 12:57:04;;;;;;;5.47;5.10;;;15.20;99.90;;;;;;10525848;28;20216;-81
2022/11/04 13:02:16;;;;;;;3.90;3.50;;;15.20;99.90;;;;;;10546214;28;20195;-81
2022/11/04 13:07:24;;;;;;;5.70;3.93;;;15.30;99.90;;;;;;10535638;28;20212;-82
2022/11/04 13:12:31;;;;;;;5.50;5.00;;;15.30;99.90;;;;;;10526200;28;20222;-80
2022/11/04 13:17:39;;;;;;;8.00;4.07;;;15.40;99.90;;;;;;10520195;28;20654;-81
2022/11/04 13:22:45;;;;;;;6.33;3.70;;;15.30;99.90;;;;;;10533018;28;20227;-81
2022/11/04 13:27:48;;;;;;;4.27;3.87;;;15.40;99.90;;;;;;10546378;28;20204;-81
2022/11/04 13:32:57;;;;;;;4.37;3.90;;;15.30;99.90;;;;;;10546438;28;20215;-82
2022/11/04 13:38:04;;;;;;;7.17;4.50;;;15.30;99.90;;;;;;10537482;28;20659;-82
2022/11/04 13:43:39;;;;;;;4.20;3.90;;;15.40;99.90;;;;;;10546652;28;20228;-81
2022/11/04 13:48:54;;;;;;;31.80;28.10;;;15.30;99.90;;;;;;10546653;28;20303;-81
2022/11/04 13:53:58;;;;;;;6.10;5.50;;;15.20;99.90;;;;;;10564035;28;20224;-81
2022/11/04 13:59:04;;;;;;;5.13;3.67;;;15.10;99.90;;;;;;10549890;28;20235;-81
2022/11/04 14:04:25;;;;;;;12.20;11.20;;;14.90;99.90;;;;;;10549414;28;20231;-81
2022/11/04 14:09:51;;;;;;;14.67;13.67;;;14.50;99.90;;;;;;10534564;28;20191;-82
2022/11/04 14:14:55;;;;;;;13.75;12.98;;;14.00;99.90;;;;;;10547420;28;20432;-82
2022/11/04 14:20:00;;;;;;;15.93;14.93;;;13.80;99.90;;;;;;10544013;28;20260;-83
2022/11/04 14:25:18;;;;;;;14.37;13.37;;;13.40;99.90;;;;;;10544775;28;20246;-82
2022/11/04 14:30:49;;;;;;;13.07;12.17;;;12.90;99.90;;;;;;10544147;28;20207;-82
2022/11/04 14:35:54;;;;;;;13.47;12.63;;;12.70;99.90;;;;;;10525971;28;20247;-82
2022/11/04 14:41:20;;;;;;;36.90;33.60;;;12.60;99.90;;;;;;10527021;28;20184;-82
2022/11/04 14:46:24;;;;;;;14.97;14.03;;;12.50;99.90;;;;;;10527324;28;20211;-83
2022/11/04 14:51:30;;;;;;;11.10;10.53;;;12.40;99.90;;;;;;10544697;28;20200;-81
2022/11/04 14:56:32;;;;;;;9.57;9.07;;;12.30;99.90;;;;;;10553361;28;20210;-82
2022/11/04 15:01:38;;;;;;;12.93;12.33;;;12.40;99.90;;;;;;10546242;28;20217;-81
2022/11/04 15:06:41;;;;;;;8.90;8.50;;;12.30;99.90;;;;;;10534518;28;20222;-82
2022/11/04 15:17:03;;;;;;;8.27;7.77;;;12.20;99.90;;;;;;10527560;28;20729;-82
2022/11/04 15:22:07;;;;;;;12.53;11.70;;;12.20;99.90;;;;;;10543762;28;20198;-81
2022/11/04 15:27:15;;;;;;;15.03;14.20;;;12.20;99.90;;;;;;10548724;28;20257;-82
2022/11/04 15:32:17;;;;;;;14.13;13.43;;;12.20;99.90;;;;;;10548873;28;20299;-82
2022/11/04 15:37:22;;;;;;;14.10;13.40;;;12.20;99.90;;;;;;10540988;28;20204;-82
2022/11/04 15:42:38;;;;;;;13.87;12.87;;;12.30;99.90;;;;;;10518738;28;20215;-81
2022/11/04 15:47:40;;;;;;;14.03;13.23;;;12.30;99.90;;;;;;10534158;28;20203;-79
2022/11/04 15:52:50;;;;;;;13.93;13.03;;;12.30;99.90;;;;;;10527536;28;20212;-82
2022/11/04 15:57:53;;;;;;;15.33;14.33;;;12.30;99.90;;;;;;10539667;28;20569;-81
2022/11/04 16:02:57;;;;;;;12.53;11.93;;;12.30;99.90;;;;;;10541048;28;20200;-82
2022/11/04 16:13:30;;;;;;;15.37;14.37;;;12.30;99.90;;;;;;10530991;28;20525;-81
2022/11/04 16:18:36;;;;;;;13.17;12.27;;;12.20;99.90;;;;;;10502744;28;20204;-81
2022/11/04 16:23:45;;;;;;;13.03;12.40;;;12.10;99.90;;;;;;10490864;28;20304;-81
2022/11/04 16:28:53;;;;;;;12.17;11.57;;;12.00;99.90;;;;;;10499105;28;20248;-82
2022/11/04 16:33:55;;;;;;;13.07;12.37;;;12.00;99.90;;;;;;10499668;28;20220;-81
2022/11/04 16:38:59;;;;;;;8.67;8.27;;;12.00;99.90;;;;;;10500578;28;20240;-81
2022/11/04 16:44:03;;;;;;;9.40;8.90;;;12.00;99.90;;;;;;10500598;28;20221;-81
2022/11/04 16:49:05;;;;;;;12.57;11.87;;;11.90;99.90;;;;;;10503109;28;20209;-82
2022/11/04 16:54:09;;;;;;;12.37;11.87;;;11.90;99.90;;;;;;10503854;28;20244;-81
2022/11/04 16:59:12;;;;;;;10.63;10.13;;;11.90;99.90;;;;;;10500043;28;20272;-82
2022/11/04 17:04:15;;;;;;;10.70;10.20;;;11.90;99.90;;;;;;10507544;28;20219;-81
2022/11/04 17:09:20;;;;;;;9.13;8.63;;;11.80;99.90;;;;;;10500096;28;20693;-81
2022/11/04 17:14:23;;;;;;;10.57;10.07;;;11.70;99.90;;;;;;10510562;28;20228;-81
2022/11/04 17:19:25;;;;;;;11.37;10.67;;;11.60;99.90;;;;;;10499736;28;20193;-81
2022/11/04 17:24:28;;;;;;;11.37;10.80;;;11.50;99.90;;;;;;10480663;28;20213;-82
2022/11/04 17:29:32;;;;;;;12.10;11.50;;;11.50;99.90;;;;;;10474531;28;20277;-82
2022/11/04 17:34:37;;;;;;;11.57;10.97;;;11.40;99.90;;;;;;10445216;28;20933;-82
2022/11/04 17:39:39;;;;;;;11.10;10.60;;;11.30;99.90;;;;;;10447408;28;20540;-83
2022/11/04 17:44:43;;;;;;;12.77;11.87;;;11.30;99.90;;;;;;10463736;28;20313;-83
2022/11/04 17:49:45;;;;;;;13.30;12.43;;;11.30;99.90;;;;;;10467249;28;20220;-83
2022/11/04 17:54:47;;;;;;;13.40;12.60;;;11.30;99.90;;;;;;10463925;28;20225;-81
2022/11/04 17:59:56;;;;;;;12.63;11.93;;;11.20;99.90;;;;;;10451315;28;20185;-83
2022/11/04 18:05:09;;;;;;;13.73;12.60;;;11.30;99.90;;;;;;10479242;28;20286;-83
2022/11/04 18:10:12;;;;;;;10.33;9.60;;;11.20;99.90;;;;;;10477353;28;20212;-82
2022/11/04 18:15:17;;;;;;;13.90;12.90;;;11.30;99.90;;;;;;10473639;28;20213;-81
2022/11/04 18:20:19;;;;;;;10.93;10.33;;;11.20;99.90;;;;;;10462622;28;20224;-82
2022/11/04 18:25:21;;;;;;;14.03;13.13;;;11.20;99.90;;;;;;10459547;28;20225;-81
2022/11/04 18:30:25;;;;;;;15.10;14.10;;;11.20;99.90;;;;;;10464898;28;20217;-80
2022/11/04 18:35:27;;;;;;;15.37;14.27;;;11.30;99.90;;;;;;10454223;28;20250;-80
2022/11/04 18:40:30;;;;;;;22.03;19.80;;;11.30;99.90;;;;;;10467280;28;20185;-82
2022/11/04 18:45:33;;;;;;;21.10;19.00;;;11.40;99.90;;;;;;10459174;28;20220;-81
2022/11/04 18:50:35;;;;;;;17.03;15.53;;;11.40;99.90;;;;;;10466178;28;20724;-81
2022/11/04 18:55:37;;;;;;;16.50;15.40;;;11.40;99.90;;;;;;10466357;28;20229;-81
2022/11/04 19:00:41;;;;;;;19.20;17.70;;;11.50;99.90;;;;;;10465316;28;20202;-80
2022/11/04 19:05:43;;;;;;;16.87;15.87;;;11.50;99.90;;;;;;10462829;28;20221;-81
2022/11/04 19:10:45;;;;;;;15.70;14.60;;;11.50;99.90;;;;;;10465025;28;20218;-81
2022/11/04 19:15:49;;;;;;;15.83;14.83;;;11.50;99.90;;;;;;10466021;28;20635;-81
2022/11/04 19:20:51;;;;;;;14.40;13.40;;;11.50;99.90;;;;;;10462577;28;20272;-81
2022/11/04 19:25:53;;;;;;;14.47;13.67;;;11.50;99.90;;;;;;10464752;28;20768;-81
2022/11/04 19:31:01;;;;;;;9.07;8.50;;;11.50;99.90;;;;;;10447192;28;20236;-80
2022/11/04 19:36:05;;;;;;;11.77;11.13;;;11.50;99.90;;;;;;10465289;28;20232;-81
2022/11/04 19:43:07;;;;;;;10.90;10.10;;;11.50;99.90;;;;;;10466877;28;20711;-81
2022/11/04 19:46:35;;;;;;;12.70;12.00;;;11.60;99.90;;;;;;10454097;28;20765;-80
2022/11/04 19:51:37;;;;;;;12.83;12.10;;;11.60;99.90;;;;;;10468135;28;20280;-81
2022/11/04 19:56:40;;;;;;;12.87;12.07;;;11.60;99.90;;;;;;10469060;28;20323;-81
2022/11/04 20:01:44;;;;;;;15.80;14.90;;;11.60;99.90;;;;;;10465199;28;20201;-80
2022/11/04 20:06:46;;;;;;;18.00;16.50;;;11.50;99.90;;;;;;10467192;28;20221;-80
2022/11/04 20:17:09;;;;;;;13.47;12.67;;;11.30;99.90;;;;;;10455218;28;20700;-82
2022/11/04 20:22:11;;;;;;;18.40;17.27;;;11.20;99.90;;;;;;10456130;28;20194;-81
2022/11/04 20:27:14;;;;;;;16.53;15.53;;;11.20;99.90;;;;;;10458108;28;20745;-81
2022/11/04 20:32:17;;;;;;;15.87;14.90;;;11.20;99.90;;;;;;10462050;28;20300;-81
2022/11/04 20:37:19;;;;;;;16.00;15.20;;;11.20;99.90;;;;;;10459702;28;20288;-82
2022/11/04 20:42:21;;;;;;;13.87;13.17;;;11.20;99.90;;;;;;10444734;28;20313;-80
2022/11/04 20:47:25;;;;;;;14.77;13.90;;;11.10;99.90;;;;;;10463841;28;20224;-80
2022/11/04 20:52:27;;;;;;;15.97;14.87;;;11.10;99.90;;;;;;10462575;28;20304;-80
2022/11/04 20:57:29;;;;;;;14.60;13.60;;;11.10;99.90;;;;;;10458909;28;20221;-81
2022/11/04 21:02:32;;;;;;;13.10;12.30;;;11.20;99.90;;;;;;10462960;28;20205;-81
2022/11/04 21:07:35;;;;;;;16.77;15.77;;;11.20;99.90;;;;;;10464568;28;20217;-81
2022/11/04 21:12:37;;;;;;;17.00;16.00;;;11.20;99.90;;;;;;10465044;28;20221;-81
2022/11/04 21:17:40;;;;;;;14.70;13.80;;;11.20;99.90;;;;;;10451053;28;20236;-81
2022/11/04 21:22:42;;;;;;;16.57;15.30;;;11.20;99.90;;;;;;10469215;28;20618;-80
2022/11/04 21:27:44;;;;;;;19.67;17.87;;;11.20;99.90;;;;;;10469343;28;20552;-81
2022/11/04 21:32:48;;;;;;;18.30;17.00;;;11.20;99.90;;;;;;10467244;28;20657;-80
2022/11/04 21:37:50;;;;;;;38.73;31.37;;;11.20;99.90;;;;;;10464656;28;20554;-79
2022/11/04 21:42:52;;;;;;;19.83;18.33;;;11.20;99.90;;;;;;10463423;28;20232;-79
2022/11/04 21:47:55;;;;;;;19.30;17.63;;;11.20;99.90;;;;;;10472598;28;20201;-83
2022/11/04 21:52:58;;;;;;;26.40;24.10;;;11.20;99.90;;;;;;10460150;28;20289;-81
2022/11/04 21:58:00;;;;;;;22.90;21.20;;;11.20;99.90;;;;;;10461512;28;20629;-82
2022/11/04 22:03:03;;;;;;;21.57;19.77;;;11.10;99.90;;;;;;10462698;28;20670;-81
2022/11/04 22:08:18;;;;;;;20.50;19.20;;;11.10;99.90;;;;;;10461355;28;20201;-83
2022/11/04 22:13:21;;;;;;;18.73;17.47;;;11.20;99.90;;;;;;10463181;28;20225;-81
2022/11/04 22:18:25;;;;;;;19.73;18.17;;;11.20;99.90;;;;;;10461307;28;20259;-80
2022/11/04 22:23:27;;;;;;;19.17;17.93;;;11.30;99.90;;;;;;10460811;28;20292;-80
2022/11/04 22:28:29;;;;;;;18.37;17.07;;;11.30;99.90;;;;;;10461668;28;20696;-81
2022/11/04 22:33:32;;;;;;;17.00;16.00;;;11.30;99.90;;;;;;10461916;28;20756;-81
2022/11/04 22:38:35;;;;;;;13.57;12.63;;;11.30;99.90;;;;;;10461171;28;20201;-81
2022/11/04 22:43:37;;;;;;;15.83;14.83;;;11.40;99.90;;;;;;10461368;28;20316;-81
2022/11/04 22:48:41;;;;;;;15.10;14.20;;;11.40;99.90;;;;;;10460988;28;20207;-81
2022/11/04 22:53:44;;;;;;;13.53;12.50;;;11.50;99.90;;;;;;10443993;28;20225;-81
2022/11/04 22:58:46;;;;;;;17.17;15.90;;;11.50;99.90;;;;;;10461310;28;20657;-81
2022/11/04 23:03:50;;;;;;;14.00;13.17;;;11.50;99.90;;;;;;10462045;28;20248;-81
2022/11/04 23:08:53;;;;;;;14.03;13.20;;;11.50;99.90;;;;;;10467293;28;20232;-81
2022/11/04 23:19:29;;;;;;;12.57;11.87;;;11.50;99.90;;;;;;10438857;28;20193;-79
2022/11/04 23:40:32;;;;;;;15.40;14.17;;;11.70;99.90;;;;;;10492076;28;20213;-80
